sensor_id;sensor_type;location;lat;lon;timestamp;pressure;altitude;pressure_sealevel;temperature;humidity
20860;BME280;10590;48.154;11.514;2023-06-24T00:04:14;96587.63;;;16.69;71.16
20860;BME280;10590;48.154;11.514;2023-06-24T00:09:41;96583.03;;;16.69;71.52
20860;BME280;10590;48.154;11.514;2023-06-24T00:15:03;96583.03;;;16.69;70.55
20860;BME280;10590;48.154;11.514;2023-06-24T00:20:26;96585.13;;;16.64;71.96
20860;BME280;10590;48.154;11.514;2023-06-24T00:25:49;96583.88;;;16.61;73.18
20860;BME280;10590;48.154;11.514;2023-06-24T00:31:11;96586.22;;;16.63;72.64
20860;BME280;10590;48.154;11.514;2023-06-24T00:36:33;96576.13;;;16.60;71.84
20860;BME280;10590;48.154;11.514;2023-06-24T00:41:57;96578.88;;;16.51;73.20
20860;BME280;10590;48.154;11.514;2023-06-24T00:47:19;96570.06;;;16.63;72.58
20860;BME280;10590;48.154;11.514;2023-06-24T00:52:40;96568.66;;;16.65;72.65
20860;BME280;10590;48.154;11.514;2023-06-24T00:58:04;96564.63;;;16.50;71.97
20860;BME280;10590;48.154;11.514;2023-06-24T01:03:27;96561.28;;;16.53;71.02
20860;BME280;10590;48.154;11.514;2023-06-24T01:08:50;96549.81;;;16.56;71.82
20860;BME280;10590;48.154;11.514;2023-06-24T01:14:18;96539.84;;;16.57;72.15
20860;BME280;10590;48.154;11.514;2023-06-24T01:19:54;96553.66;;;16.55;71.10
20860;BME280;10590;48.154;11.514;2023-06-24T01:25:33;96536.56;;;16.51;71.34
20860;BME280;10590;48.154;11.514;2023-06-24T01:31:31;96542.75;;;16.52;71.92
20860;BME280;10590;48.154;11.514;2023-06-24T01:37:02;96536.44;;;16.48;71.87
20860;BME280;10590;48.154;11.514;2023-06-24T01:42:27;96542.78;;;16.43;72.00
20860;BME280;10590;48.154;11.514;2023-06-24T01:48:06;96533.41;;;16.49;72.18
20860;BME280;10590;48.154;11.514;2023-06-24T01:53:33;96538.63;;;16.46;72.14
20860;BME280;10590;48.154;11.514;2023-06-24T01:58:58;96537.22;;;16.48;72.06
20860;BME280;10590;48.154;11.514;2023-06-24T02:04:24;96526.81;;;16.38;73.13
20860;BME280;10590;48.154;11.514;2023-06-24T02:09:48;96527.94;;;16.37;72.30
20860;BME280;10590;48.154;11.514;2023-06-24T02:15:10;96527.16;;;16.37;72.12
20860;BME280;10590;48.154;11.514;2023-06-24T02:20:36;96527.69;;;16.30;71.09
20860;BME280;10590;48.154;11.514;2023-06-24T02:26:00;96532.41;;;16.33;71.38
20860;BME280;10590;48.154;11.514;2023-06-24T02:31:23;96524.00;;;16.35;71.60
20860;BME280;10590;48.154;11.514;2023-06-24T02:36:46;96535.75;;;16.30;71.75
20860;BME280;10590;48.154;11.514;2023-06-24T02:42:08;96540.75;;;16.40;71.46
20860;BME280;10590;48.154;11.514;2023-06-24T02:47:31;96543.00;;;16.17;70.18
20860;BME280;10590;48.154;11.514;2023-06-24T02:52:55;96547.84;;;16.24;71.36
20860;BME280;10590;48.154;11.514;2023-06-24T02:58:17;96559.47;;;16.37;70.88
20860;BME280;10590;48.154;11.514;2023-06-24T03:03:40;96565.06;;;16.32;70.44
20860;BME280;10590;48.154;11.514;2023-06-24T03:09:04;96557.97;;;16.27;70.60
20860;BME280;10590;48.154;11.514;2023-06-24T03:14:26;96554.75;;;16.13;71.44
20860;BME280;10590;48.154;11.514;2023-06-24T03:19:48;96564.66;;;16.21;70.81
20860;BME280;10590;48.154;11.514;2023-06-24T03:25:11;96580.81;;;16.21;71.19
20860;BME280;10590;48.154;11.514;2023-06-24T03:30:33;96588.31;;;16.36;70.02
20860;BME280;10590;48.154;11.514;2023-06-24T03:35:55;96586.75;;;16.35;70.90
20860;BME280;10590;48.154;11.514;2023-06-24T03:41:18;96582.41;;;16.22;71.12
20860;BME280;10590;48.154;11.514;2023-06-24T03:46:40;96589.81;;;16.25;70.03
20860;BME280;10590;48.154;11.514;2023-06-24T03:52:03;96590.09;;;16.32;69.41
20860;BME280;10590;48.154;11.514;2023-06-24T03:57:27;96591.31;;;16.14;70.59
20860;BME280;10590;48.154;11.514;2023-06-24T04:02:49;96586.00;;;16.26;69.90
20860;BME280;10590;48.154;11.514;2023-06-24T04:08:12;96589.09;;;16.37;69.50
20860;BME280;10590;48.154;11.514;2023-06-24T04:13:36;96591.09;;;16.48;69.18
20860;BME280;10590;48.154;11.514;2023-06-24T04:18:58;96590.25;;;16.56;68.98
20860;BME280;10590;48.154;11.514;2023-06-24T04:24:20;96591.16;;;16.61;68.79
20860;BME280;10590;48.154;11.514;2023-06-24T04:29:43;96591.72;;;16.75;67.39
20860;BME280;10590;48.154;11.514;2023-06-24T04:35:05;96593.34;;;16.88;68.16
20860;BME280;10590;48.154;11.514;2023-06-24T04:40:27;96601.13;;;16.69;68.49
20860;BME280;10590;48.154;11.514;2023-06-24T04:45:50;96606.81;;;16.88;67.30
20860;BME280;10590;48.154;11.514;2023-06-24T04:51:15;96604.31;;;16.83;66.52
20860;BME280;10590;48.154;11.514;2023-06-24T04:56:37;96613.66;;;17.18;65.70
20860;BME280;10590;48.154;11.514;2023-06-24T05:02:01;96609.16;;;17.23;66.08
20860;BME280;10590;48.154;11.514;2023-06-24T05:07:23;96618.59;;;17.49;65.24
20860;BME280;10590;48.154;11.514;2023-06-24T05:12:45;96615.72;;;17.67;64.86
20860;BME280;10590;48.154;11.514;2023-06-24T05:18:08;96608.81;;;17.57;64.96
20860;BME280;10590;48.154;11.514;2023-06-24T05:23:30;96611.56;;;17.69;65.42
20860;BME280;10590;48.154;11.514;2023-06-24T05:28:52;96612.91;;;17.75;64.43
20860;BME280;10590;48.154;11.514;2023-06-24T05:34:15;96618.97;;;17.85;62.92
20860;BME280;10590;48.154;11.514;2023-06-24T05:39:37;96622.91;;;18.11;61.87
20860;BME280;10590;48.154;11.514;2023-06-24T05:44:59;96628.22;;;18.32;61.60
20860;BME280;10590;48.154;11.514;2023-06-24T05:50:22;96630.34;;;18.39;61.53
20860;BME280;10590;48.154;11.514;2023-06-24T05:55:44;96624.03;;;18.47;60.54
20860;BME280;10590;48.154;11.514;2023-06-24T06:01:07;96637.41;;;18.56;60.78
20860;BME280;10590;48.154;11.514;2023-06-24T06:06:30;96638.44;;;18.63;61.36
20860;BME280;10590;48.154;11.514;2023-06-24T06:11:52;96641.00;;;19.00;58.75
20860;BME280;10590;48.154;11.514;2023-06-24T06:17:14;96639.41;;;18.71;60.84
20860;BME280;10590;48.154;11.514;2023-06-24T06:22:37;96639.47;;;19.27;57.80
20860;BME280;10590;48.154;11.514;2023-06-24T06:27:59;96627.91;;;19.58;57.35
20860;BME280;10590;48.154;11.514;2023-06-24T06:33:21;96635.34;;;20.40;54.67
20860;BME280;10590;48.154;11.514;2023-06-24T06:38:45;96615.69;;;20.62;51.38
20860;BME280;10590;48.154;11.514;2023-06-24T06:44:06;96624.13;;;21.34;50.10
20860;BME280;10590;48.154;11.514;2023-06-24T06:49:28;96635.06;;;20.99;49.68
20860;BME280;10590;48.154;11.514;2023-06-24T06:54:52;96634.25;;;20.79;49.72
20860;BME280;10590;48.154;11.514;2023-06-24T07:00:14;96634.41;;;21.44;49.18
20860;BME280;10590;48.154;11.514;2023-06-24T07:05:36;96634.00;;;21.04;49.46
20860;BME280;10590;48.154;11.514;2023-06-24T07:10:59;96629.25;;;21.20;48.97
20860;BME280;10590;48.154;11.514;2023-06-24T07:16:21;96636.13;;;21.75;46.83
20860;BME280;10590;48.154;11.514;2023-06-24T07:21:43;96636.00;;;21.07;47.92
20860;BME280;10590;48.154;11.514;2023-06-24T07:27:07;96631.34;;;21.07;49.18
20860;BME280;10590;48.154;11.514;2023-06-24T07:32:29;96632.56;;;21.10;48.54
20860;BME280;10590;48.154;11.514;2023-06-24T07:37:50;96627.56;;;20.92;48.77
20860;BME280;10590;48.154;11.514;2023-06-24T07:43:14;96636.88;;;21.53;46.88
20860;BME280;10590;48.154;11.514;2023-06-24T07:48:36;96629.66;;;21.60;47.79
20860;BME280;10590;48.154;11.514;2023-06-24T07:53:57;96638.13;;;21.17;47.58
20860;BME280;10590;48.154;11.514;2023-06-24T07:59:21;96648.13;;;20.93;48.51
20860;BME280;10590;48.154;11.514;2023-06-24T08:04:43;96646.84;;;21.07;50.36
20860;BME280;10590;48.154;11.514;2023-06-24T08:10:05;96650.38;;;21.26;48.53
20860;BME280;10590;48.154;11.514;2023-06-24T08:15:29;96627.00;;;21.03;49.12
20860;BME280;10590;48.154;11.514;2023-06-24T08:20:51;96640.00;;;21.74;47.17
20860;BME280;10590;48.154;11.514;2023-06-24T08:26:13;96646.78;;;21.65;47.58
20860;BME280;10590;48.154;11.514;2023-06-24T08:37:16;96633.34;;;26.81;37.47
20860;BME280;10590;48.154;11.514;2023-06-24T08:42:38;96630.50;;;27.90;33.93
20860;BME280;10590;48.154;11.514;2023-06-24T08:48:08;96628.16;;;27.88;33.01
20860;BME280;10590;48.154;11.514;2023-06-24T08:53:30;96625.94;;;29.34;30.89
20860;BME280;10590;48.154;11.514;2023-06-24T08:58:53;96627.22;;;28.95;32.06
20860;BME280;10590;48.154;11.514;2023-06-24T09:04:16;96624.44;;;30.60;29.45
20860;BME280;10590;48.154;11.514;2023-06-24T09:09:42;96625.63;;;26.05;35.20
20860;BME280;10590;48.154;11.514;2023-06-24T09:15:05;96629.91;;;21.75;45.35
20860;BME280;10590;48.154;11.514;2023-06-24T09:20:29;96633.81;;;21.54;45.25
20860;BME280;10590;48.154;11.514;2023-06-24T09:25:56;96627.53;;;21.96;44.02
20860;BME280;10590;48.154;11.514;2023-06-24T09:31:18;96612.78;;;24.87;39.74
20860;BME280;10590;48.154;11.514;2023-06-24T09:36:51;96612.38;;;23.38;41.19
20860;BME280;10590;48.154;11.514;2023-06-24T09:42:13;96610.03;;;23.73;41.06
20860;BME280;10590;48.154;11.514;2023-06-24T09:47:35;96610.88;;;23.07;41.89
20860;BME280;10590;48.154;11.514;2023-06-24T09:52:59;96596.50;;;27.77;32.61
20860;BME280;10590;48.154;11.514;2023-06-24T09:58:21;96602.56;;;27.43;32.28
20860;BME280;10590;48.154;11.514;2023-06-24T10:03:43;96605.44;;;24.98;38.72
20860;BME280;10590;48.154;11.514;2023-06-24T10:09:07;96598.06;;;22.77;44.33
20860;BME280;10590;48.154;11.514;2023-06-24T10:14:30;96577.84;;;26.63;34.95
20860;BME280;10590;48.154;11.514;2023-06-24T10:19:52;96586.75;;;23.83;40.42
20860;BME280;10590;48.154;11.514;2023-06-24T10:25:16;96575.25;;;24.66;37.57
20860;BME280;10590;48.154;11.514;2023-06-24T10:30:38;96565.97;;;24.15;39.12
20860;BME280;10590;48.154;11.514;2023-06-24T10:36:00;96563.41;;;23.86;39.56
20860;BME280;10590;48.154;11.514;2023-06-24T10:41:25;96553.47;;;28.52;31.47
20860;BME280;10590;48.154;11.514;2023-06-24T10:46:53;96547.53;;;28.95;29.38
20860;BME280;10590;48.154;11.514;2023-06-24T10:52:18;96533.84;;;28.16;31.32
20860;BME280;10590;48.154;11.514;2023-06-24T10:57:42;96532.44;;;29.34;27.54
20860;BME280;10590;48.154;11.514;2023-06-24T11:03:08;96541.03;;;29.90;27.48
20860;BME280;10590;48.154;11.514;2023-06-24T11:08:30;96528.03;;;30.60;23.91
20860;BME280;10590;48.154;11.514;2023-06-24T11:13:53;96521.56;;;29.27;25.57
20860;BME280;10590;48.154;11.514;2023-06-24T11:19:16;96517.84;;;29.67;26.51
20860;BME280;10590;48.154;11.514;2023-06-24T11:24:38;96501.84;;;30.88;24.15
20860;BME280;10590;48.154;11.514;2023-06-24T11:30:02;96508.78;;;25.52;30.24
20860;BME280;10590;48.154;11.514;2023-06-24T11:35:24;96488.53;;;29.03;26.24
20860;BME280;10590;48.154;11.514;2023-06-24T11:40:48;96478.94;;;27.27;29.43
20860;BME280;10590;48.154;11.514;2023-06-24T11:46:20;96477.34;;;23.85;34.28
20860;BME280;10590;48.154;11.514;2023-06-24T11:51:47;96470.72;;;27.79;28.36
20860;BME280;10590;48.154;11.514;2023-06-24T11:57:09;96468.63;;;27.45;30.73
20860;BME280;10590;48.154;11.514;2023-06-24T12:02:36;96465.13;;;28.27;31.31
20860;BME280;10590;48.154;11.514;2023-06-24T12:08:00;96454.09;;;26.93;30.85
20860;BME280;10590;48.154;11.514;2023-06-24T12:13:22;96447.50;;;28.89;29.71
20860;BME280;10590;48.154;11.514;2023-06-24T12:18:45;96446.97;;;29.95;26.10
20860;BME280;10590;48.154;11.514;2023-06-24T12:24:07;96435.34;;;27.43;31.74
20860;BME280;10590;48.154;11.514;2023-06-24T12:29:29;96435.38;;;30.27;27.07
20860;BME280;10590;48.154;11.514;2023-06-24T12:34:52;96437.28;;;25.89;32.31
20860;BME280;10590;48.154;11.514;2023-06-24T12:40:14;96420.88;;;28.82;27.84
20860;BME280;10590;48.154;11.514;2023-06-24T12:45:36;96415.44;;;28.79;26.17
20860;BME280;10590;48.154;11.514;2023-06-24T12:51:00;96408.94;;;29.90;27.02
20860;BME280;10590;48.154;11.514;2023-06-24T12:56:22;96399.06;;;31.24;23.78
20860;BME280;10590;48.154;11.514;2023-06-24T13:01:44;96401.03;;;29.72;24.16
20860;BME280;10590;48.154;11.514;2023-06-24T13:07:07;96399.38;;;29.55;24.99
20860;BME280;10590;48.154;11.514;2023-06-24T13:12:30;96405.19;;;24.37;34.23
20860;BME280;10590;48.154;11.514;2023-06-24T13:17:52;96401.31;;;23.14;36.60
20860;BME280;10590;48.154;11.514;2023-06-24T13:23:15;96388.19;;;23.30;37.18
20860;BME280;10590;48.154;11.514;2023-06-24T13:28:37;96389.88;;;23.45;36.68
20860;BME280;10590;48.154;11.514;2023-06-24T13:34:00;96389.25;;;25.81;32.33
20860;BME280;10590;48.154;11.514;2023-06-24T13:39:23;96391.06;;;28.84;27.66
20860;BME280;10590;48.154;11.514;2023-06-24T13:44:45;96377.97;;;30.25;28.42
20860;BME280;10590;48.154;11.514;2023-06-24T13:50:07;96378.63;;;31.21;23.76
20860;BME280;10590;48.154;11.514;2023-06-24T13:55:31;96381.84;;;30.48;24.79
20860;BME280;10590;48.154;11.514;2023-06-24T14:00:52;96369.25;;;27.34;28.61
20860;BME280;10590;48.154;11.514;2023-06-24T14:06:16;96369.63;;;27.77;28.25
20860;BME280;10590;48.154;11.514;2023-06-24T14:11:39;96362.59;;;26.10;32.91
20860;BME280;10590;48.154;11.514;2023-06-24T14:17:01;96357.44;;;29.00;27.62
20860;BME280;10590;48.154;11.514;2023-06-24T14:22:23;96353.97;;;29.43;26.40
20860;BME280;10590;48.154;11.514;2023-06-24T14:27:48;96354.53;;;29.58;27.43
20860;BME280;10590;48.154;11.514;2023-06-24T14:33:10;96350.81;;;29.21;27.62
20860;BME280;10590;48.154;11.514;2023-06-24T14:38:31;96342.75;;;30.36;25.52
20860;BME280;10590;48.154;11.514;2023-06-24T14:43:55;96348.31;;;27.51;29.37
20860;BME280;10590;48.154;11.514;2023-06-24T14:49:18;96340.78;;;28.30;30.01
20860;BME280;10590;48.154;11.514;2023-06-24T14:54:40;96340.34;;;30.38;25.61
20860;BME280;10590;48.154;11.514;2023-06-24T15:00:04;96336.06;;;29.11;26.73
20860;BME280;10590;48.154;11.514;2023-06-24T15:05:26;96337.56;;;28.35;28.08
20860;BME280;10590;48.154;11.514;2023-06-24T15:10:48;96336.75;;;27.74;29.01
20860;BME280;10590;48.154;11.514;2023-06-24T15:16:11;96330.25;;;28.25;30.87
20860;BME280;10590;48.154;11.514;2023-06-24T15:21:33;96330.28;;;27.91;28.22
20860;BME280;10590;48.154;11.514;2023-06-24T15:26:56;96326.00;;;26.56;30.99
20860;BME280;10590;48.154;11.514;2023-06-24T15:32:20;96317.34;;;27.91;30.73
20860;BME280;10590;48.154;11.514;2023-06-24T15:37:42;96313.22;;;28.37;29.89
20860;BME280;10590;48.154;11.514;2023-06-24T15:43:04;96304.56;;;25.53;32.28
20860;BME280;10590;48.154;11.514;2023-06-24T15:48:30;96305.03;;;24.62;33.91
20860;BME280;10590;48.154;11.514;2023-06-24T15:53:52;96301.03;;;24.13;37.62
20860;BME280;10590;48.154;11.514;2023-06-24T15:59:14;96301.94;;;24.64;35.24
20860;BME280;10590;48.154;11.514;2023-06-24T16:04:38;96292.81;;;23.96;33.79
20860;BME280;10590;48.154;11.514;2023-06-24T16:10:00;96294.41;;;24.14;37.87
20860;BME280;10590;48.154;11.514;2023-06-24T16:15:22;96293.25;;;24.23;34.52
20860;BME280;10590;48.154;11.514;2023-06-24T16:20:45;96288.19;;;24.21;35.63
20860;BME280;10590;48.154;11.514;2023-06-24T16:26:07;96287.50;;;24.38;37.05
20860;BME280;10590;48.154;11.514;2023-06-24T16:31:29;96281.16;;;24.09;36.17
20860;BME280;10590;48.154;11.514;2023-06-24T16:36:52;96283.06;;;23.95;35.39
20860;BME280;10590;48.154;11.514;2023-06-24T16:42:14;96278.81;;;24.08;36.06
20860;BME280;10590;48.154;11.514;2023-06-24T16:47:36;96271.13;;;24.38;36.48
20860;BME280;10590;48.154;11.514;2023-06-24T16:53:00;96272.66;;;24.86;34.07
20860;BME280;10590;48.154;11.514;2023-06-24T16:58:22;96266.44;;;24.35;35.08
20860;BME280;10590;48.154;11.514;2023-06-24T17:03:44;96258.19;;;24.18;34.35
20860;BME280;10590;48.154;11.514;2023-06-24T17:09:08;96253.81;;;23.81;35.83
20860;BME280;10590;48.154;11.514;2023-06-24T17:14:29;96262.06;;;24.02;36.15
20860;BME280;10590;48.154;11.514;2023-06-24T17:19:51;96256.91;;;23.72;36.25
20860;BME280;10590;48.154;11.514;2023-06-24T17:25:15;96261.19;;;23.66;36.51
20860;BME280;10590;48.154;11.514;2023-06-24T17:30:37;96265.06;;;23.65;37.12
20860;BME280;10590;48.154;11.514;2023-06-24T17:36:00;96255.22;;;23.46;37.15
20860;BME280;10590;48.154;11.514;2023-06-24T17:41:24;96255.66;;;23.52;37.28
20860;BME280;10590;48.154;11.514;2023-06-24T17:46:46;96252.72;;;23.16;37.69
20860;BME280;10590;48.154;11.514;2023-06-24T17:52:08;96248.22;;;23.42;38.31
20860;BME280;10590;48.154;11.514;2023-06-24T17:57:32;96243.53;;;23.42;38.30
20860;BME280;10590;48.154;11.514;2023-06-24T18:02:53;96247.78;;;22.74;38.05
20860;BME280;10590;48.154;11.514;2023-06-24T18:08:15;96237.50;;;23.05;38.62
20860;BME280;10590;48.154;11.514;2023-06-24T18:13:39;96230.91;;;23.06;41.90
20860;BME280;10590;48.154;11.514;2023-06-24T18:19:01;96211.81;;;22.47;38.60
20860;BME280;10590;48.154;11.514;2023-06-24T18:24:23;96232.72;;;22.84;40.92
20860;BME280;10590;48.154;11.514;2023-06-24T18:29:46;96234.56;;;22.73;41.18
20860;BME280;10590;48.154;11.514;2023-06-24T18:35:08;96233.31;;;22.63;40.89
20860;BME280;10590;48.154;11.514;2023-06-24T18:40:30;96233.94;;;22.46;42.36
20860;BME280;10590;48.154;11.514;2023-06-24T18:45:53;96218.53;;;22.13;42.97
20860;BME280;10590;48.154;11.514;2023-06-24T18:51:16;96224.50;;;21.92;43.27
20860;BME280;10590;48.154;11.514;2023-06-24T18:56:39;96229.75;;;21.41;46.58
20860;BME280;10590;48.154;11.514;2023-06-24T19:02:03;96230.50;;;21.38;46.25
20860;BME280;10590;48.154;11.514;2023-06-24T19:07:25;96228.56;;;21.38;46.26
20860;BME280;10590;48.154;11.514;2023-06-24T19:12:47;96232.19;;;21.19;47.04
20860;BME280;10590;48.154;11.514;2023-06-24T19:18:15;96230.28;;;20.93;47.38
20860;BME280;10590;48.154;11.514;2023-06-24T19:23:37;96241.34;;;20.81;48.20
20860;BME280;10590;48.154;11.514;2023-06-24T19:28:59;96225.78;;;20.52;49.17
20860;BME280;10590;48.154;11.514;2023-06-24T19:34:22;96236.47;;;20.41;49.52
20860;BME280;10590;48.154;11.514;2023-06-24T19:39:44;96249.69;;;20.23;50.02
20860;BME280;10590;48.154;11.514;2023-06-24T19:45:07;96239.69;;;20.04;51.51
20860;BME280;10590;48.154;11.514;2023-06-24T19:50:31;96244.06;;;19.90;51.56
20860;BME280;10590;48.154;11.514;2023-06-24T19:55:53;96249.78;;;19.65;53.17
20860;BME280;10590;48.154;11.514;2023-06-24T20:01:15;96238.66;;;19.51;54.30
20860;BME280;10590;48.154;11.514;2023-06-24T20:06:38;96247.50;;;19.29;54.83
20860;BME280;10590;48.154;11.514;2023-06-24T20:12:00;96248.09;;;19.03;56.03
20860;BME280;10590;48.154;11.514;2023-06-24T20:17:22;96251.66;;;19.07;54.45
20860;BME280;10590;48.154;11.514;2023-06-24T20:22:46;96246.16;;;19.03;56.81
20860;BME280;10590;48.154;11.514;2023-06-24T20:28:10;96237.63;;;19.01;55.29
20860;BME280;10590;48.154;11.514;2023-06-24T20:33:33;96238.81;;;18.85;56.44
20860;BME280;10590;48.154;11.514;2023-06-24T20:38:59;96232.00;;;18.91;55.35
20860;BME280;10590;48.154;11.514;2023-06-24T20:44:21;96239.50;;;18.82;56.00
20860;BME280;10590;48.154;11.514;2023-06-24T20:49:43;96240.84;;;18.72;55.45
20860;BME280;10590;48.154;11.514;2023-06-24T20:55:07;96234.31;;;18.73;56.04
20860;BME280;10590;48.154;11.514;2023-06-24T21:00:29;96230.09;;;18.75;54.94
20860;BME280;10590;48.154;11.514;2023-06-24T21:05:53;96220.22;;;18.83;54.30
20860;BME280;10590;48.154;11.514;2023-06-24T21:11:17;96224.91;;;18.67;55.62
20860;BME280;10590;48.154;11.514;2023-06-24T21:16:39;96235.09;;;18.73;55.25
20860;BME280;10590;48.154;11.514;2023-06-24T21:22:01;96229.78;;;18.45;55.90
20860;BME280;10590;48.154;11.514;2023-06-24T21:27:26;96232.56;;;18.49;56.89
20860;BME280;10590;48.154;11.514;2023-06-24T21:32:48;96233.03;;;18.35;56.33
20860;BME280;10590;48.154;11.514;2023-06-24T21:38:10;96239.13;;;18.32;55.40
20860;BME280;10590;48.154;11.514;2023-06-24T21:43:34;96232.06;;;18.28;56.23
20860;BME280;10590;48.154;11.514;2023-06-24T21:48:57;96230.28;;;18.20;56.35
20860;BME280;10590;48.154;11.514;2023-06-24T21:54:19;96233.34;;;18.18;55.73
20860;BME280;10590;48.154;11.514;2023-06-24T21:59:42;96227.41;;;17.97;56.42
20860;BME280;10590;48.154;11.514;2023-06-24T22:05:04;96230.72;;;18.06;56.55
20860;BME280;10590;48.154;11.514;2023-06-24T22:10:27;96216.19;;;17.95;56.77
20860;BME280;10590;48.154;11.514;2023-06-24T22:15:50;96218.53;;;17.80;55.75
20860;BME280;10590;48.154;11.514;2023-06-24T22:21:12;96206.94;;;17.80;56.02
20860;BME280;10590;48.154;11.514;2023-06-24T22:26:34;96211.81;;;17.74;55.24
20860;BME280;10590;48.154;11.514;2023-06-24T22:31:57;96211.91;;;17.50;56.75
20860;BME280;10590;48.154;11.514;2023-06-24T22:37:19;96207.91;;;17.60;56.75
20860;BME280;10590;48.154;11.514;2023-06-24T22:42:41;96203.53;;;17.39;58.81
20860;BME280;10590;48.154;11.514;2023-06-24T22:48:05;96199.59;;;17.37;58.47
20860;BME280;10590;48.154;11.514;2023-06-24T22:53:38;96194.78;;;17.30;59.32
20860;BME280;10590;48.154;11.514;2023-06-24T22:59:02;96192.63;;;17.08;59.63
20860;BME280;10590;48.154;11.514;2023-06-24T23:04:26;96185.63;;;16.79;60.59
20860;BME280;10590;48.154;11.514;2023-06-24T23:09:49;96187.91;;;17.05;59.72
20860;BME280;10590;48.154;11.514;2023-06-24T23:15:11;96181.69;;;16.76;61.97
20860;BME280;10590;48.154;11.514;2023-06-24T23:20:36;96173.16;;;16.74;61.92
20860;BME280;10590;48.154;11.514;2023-06-24T23:26:02;96165.88;;;16.63;62.46
20860;BME280;10590;48.154;11.514;2023-06-24T23:31:25;96173.06;;;16.59;62.14
20860;BME280;10590;48.154;11.514;2023-06-24T23:36:52;96170.16;;;16.51;63.21
20860;BME280;10590;48.154;11.514;2023-06-24T23:42:14;96167.91;;;16.17;64.56
20860;BME280;10590;48.154;11.514;2023-06-24T23:47:36;96163.31;;;16.17;65.44
20860;BME280;10590;48.154;11.514;2023-06-24T23:52:59;96161.19;;;16.11;65.10
20860;BME280;10590;48.154;11.514;2023-06-24T23:58:21;96155.56;;;15.79;66.28
